Time;durP1;ratioP1;P1;durP2;ratioP2;P2;SDS_P1;SDS_P2;PMS_P1;PMS_P2;Temp;Humidity;BMP_temperature;BMP_pressure;BME280_temperature;BME280_humidity;BME280_pressure;Samples;Min_cycle;Max_cycle;Signal;HPM_P1;HPM_P2
2023/06/03 00:00:41;;;;;;;5.78;3.55;;;;;;;;;;5052225;28;20033;-75
2023/06/03 00:03:11;;;;;;;5.07;3.72;;;;;;;;;;5052255;28;20487;-75
2023/06/03 00:05:38;;;;;;;5.35;3.65;;;;;;;;;;5052508;28;20488;-75
2023/06/03 00:08:03;;;;;;;4.55;3.45;;;;;;;;;;5051414;28;20048;-75
2023/06/03 00:10:29;;;;;;;4.93;3.45;;;;;;;;;;5051166;28;20033;-75
2023/06/03 00:12:55;;;;;;;5.22;4.10;;;;;;;;;;5049026;28;20514;-78
2023/06/03 00:15:20;;;;;;;6.53;4.25;;;;;;;;;;5052348;28;20033;-75
2023/06/03 00:17:45;;;;;;;6.22;4.28;;;;;;;;;;5051939;28;20056;-75
2023/06/03 00:20:11;;;;;;;7.13;4.13;;;;;;;;;;5047400;28;20037;-76
2023/06/03 00:22:37;;;;;;;5.68;4.25;;;;;;;;;;5052283;28;20079;-76
2023/06/03 00:25:03;;;;;;;7.15;4.50;;;;;;;;;;5051825;28;20033;-75
2023/06/03 00:27:29;;;;;;;4.53;3.70;;;;;;;;;;5034511;28;20025;-76
2023/06/03 00:29:54;;;;;;;7.85;4.07;;;;;;;;;;5051751;28;20040;-75
2023/06/03 00:32:20;;;;;;;6.53;4.65;;;;;;;;;;5052202;28;20071;-76
2023/06/03 00:34:46;;;;;;;5.63;3.88;;;;;;;;;;5050384;28;20462;-76
2023/06/03 00:37:11;;;;;;;8.68;6.72;;;;;;;;;;5052369;28;20481;-77
2023/06/03 00:39:37;;;;;;;7.25;4.53;;;;;;;;;;5067544;28;20506;-75
2023/06/03 00:42:02;;;;;;;6.55;4.15;;;;;;;;;;5033849;28;20013;-78
2023/06/03 00:44:28;;;;;;;6.22;4.57;;;;;;;;;;5034351;28;20515;-76
2023/06/03 00:46:53;;;;;;;6.25;4.68;;;;;;;;;;5033782;28;20112;-76
2023/06/03 00:49:19;;;;;;;5.13;3.85;;;;;;;;;;5034188;28;20546;-75
2023/06/03 00:51:44;;;;;;;6.93;4.47;;;;;;;;;;5050274;28;20086;-75
2023/06/03 00:54:10;;;;;;;6.22;4.13;;;;;;;;;;5016161;28;20128;-75
2023/06/03 00:56:42;;;;;;;7.78;4.03;;;;;;;;;;5046116;28;20072;-75
2023/06/03 00:59:10;;;;;;;7.45;4.43;;;;;;;;;;5034388;28;20033;-77
2023/06/03 01:01:38;;;;;;;6.88;4.53;;;;;;;;;;5032257;28;20013;-76
2023/06/03 01:04:05;;;;;;;6.35;4.78;;;;;;;;;;5051291;28;20037;-77
2023/06/03 01:06:49;;;;;;;8.77;4.53;;;;;;;;;;5050197;28;20029;-77
2023/06/03 01:09:25;;;;;;;5.53;4.35;;;;;;;;;;5050222;28;20044;-77
2023/06/03 01:11:51;;;;;;;;;;;;;;;;;;5051039;28;20439;-77
2023/06/03 01:14:22;;;;;;;8.07;4.97;;;;;;;;;;5051045;28;19908;-77
2023/06/03 01:16:48;;;;;;;8.77;5.05;;;;;;;;;;5051419;28;20523;-77
2023/06/03 01:19:17;;;;;;;8.48;4.88;;;;;;;;;;5029700;28;20056;-77
2023/06/03 01:21:44;;;;;;;6.15;4.70;;;;;;;;;;5033676;28;20090;-77
2023/06/03 01:24:16;;;;;;;6.78;5.40;;;;;;;;;;5039738;28;20025;-77
2023/06/03 01:26:42;;;;;;;6.05;4.65;;;;;;;;;;5049366;28;20603;-75
2023/06/03 01:29:07;;;;;;;5.82;4.30;;;;;;;;;;5050209;28;20111;-76
2023/06/03 01:31:33;;;;;;;8.05;4.72;;;;;;;;;;5048024;28;20382;-77
2023/06/03 01:33:59;;;;;;;8.07;4.93;;;;;;;;;;5049541;28;20040;-75
2023/06/03 01:36:25;;;;;;;6.72;4.90;;;;;;;;;;5031514;28;20045;-78
2023/06/03 01:38:50;;;;;;;7.18;4.47;;;;;;;;;;5033111;28;20069;-77
2023/06/03 01:41:15;;;;;;;5.38;4.25;;;;;;;;;;5029176;28;20064;-77
2023/06/03 01:43:41;;;;;;;5.57;4.20;;;;;;;;;;5047804;28;20021;-77
2023/06/03 01:46:07;;;;;;;5.95;4.50;;;;;;;;;;5049572;28;20025;-77
2023/06/03 01:48:33;;;;;;;8.30;5.53;;;;;;;;;;5047410;28;20016;-78
2023/06/03 01:50:59;;;;;;;10.80;5.80;;;;;;;;;;5033204;28;20037;-77
2023/06/03 01:53:25;;;;;;;6.75;5.07;;;;;;;;;;5050595;28;20024;-78
2023/06/03 01:55:51;;;;;;;7.55;5.68;;;;;;;;;;5049659;28;20112;-78
2023/06/03 01:58:17;;;;;;;6.68;4.90;;;;;;;;;;5046152;28;20382;-76
2023/06/03 02:00:43;;;;;;;7.57;5.45;;;;;;;;;;5049190;28;20033;-76
2023/06/03 02:03:08;;;;;;;6.47;5.07;;;;;;;;;;5049182;28;20488;-75
2023/06/03 02:05:34;;;;;;;6.95;5.30;;;;;;;;;;5039590;28;20035;-75
2023/06/03 02:08:00;;;;;;;9.10;5.25;;;;;;;;;;5049044;28;20028;-75
2023/06/03 02:10:25;;;;;;;7.18;5.38;;;;;;;;;;5049189;28;20048;-75
2023/06/03 02:12:51;;;;;;;6.72;5.05;;;;;;;;;;5049482;28;20911;-77
2023/06/03 02:15:16;;;;;;;12.18;5.35;;;;;;;;;;5040055;28;20033;-75
2023/06/03 02:17:43;;;;;;;7.15;5.10;;;;;;;;;;5048805;28;20102;-76
2023/06/03 02:20:09;;;;;;;6.88;4.63;;;;;;;;;;5048655;28;20072;-76
2023/06/03 02:22:35;;;;;;;5.88;4.78;;;;;;;;;;5029228;28;20053;-75
2023/06/03 02:25:00;;;;;;;7.35;4.80;;;;;;;;;;5031775;28;20029;-76
2023/06/03 02:27:28;;;;;;;6.22;4.65;;;;;;;;;;5048794;28;20488;-75
2023/06/03 02:29:53;;;;;;;7.40;4.68;;;;;;;;;;5050054;28;20044;-76
2023/06/03 02:32:19;;;;;;;6.85;4.70;;;;;;;;;;5047606;28;20033;-75
2023/06/03 02:34:46;;;;;;;6.93;5.30;;;;;;;;;;5049128;28;20041;-76
2023/06/03 02:37:12;;;;;;;8.13;4.60;;;;;;;;;;5050495;28;20551;-76
2023/06/03 02:39:38;;;;;;;6.40;4.95;;;;;;;;;;5052092;28;20113;-77
2023/06/03 02:42:03;;;;;;;5.38;4.72;;;;;;;;;;5016574;28;20025;-76
2023/06/03 02:44:29;;;;;;;7.05;4.70;;;;;;;;;;5051603;28;20026;-77
2023/06/03 02:46:55;;;;;;;6.25;5.10;;;;;;;;;;5046008;28;20484;-76
2023/06/03 02:49:20;;;;;;;6.50;4.88;;;;;;;;;;5052872;28;20039;-77
2023/06/03 02:51:48;;;;;;;5.82;4.25;;;;;;;;;;5052945;28;20051;-76
2023/06/03 02:54:13;;;;;;;6.78;4.85;;;;;;;;;;5053456;28;20029;-77
2023/06/03 02:56:39;;;;;;;7.07;5.13;;;;;;;;;;5036021;28;20080;-76
2023/06/03 02:59:05;;;;;;;9.45;6.32;;;;;;;;;;5047380;28;20033;-76
2023/06/03 03:01:31;;;;;;;7.00;5.53;;;;;;;;;;5052901;28;20029;-76
2023/06/03 03:03:56;;;;;;;9.13;4.80;;;;;;;;;;5051362;28;20029;-76
2023/06/03 03:06:24;;;;;;;5.90;4.40;;;;;;;;;;5052465;28;20021;-77
2023/06/03 03:08:50;;;;;;;5.90;4.28;;;;;;;;;;5035833;28;20385;-77
2023/06/03 03:11:18;;;;;;;5.85;4.43;;;;;;;;;;5033534;28;20029;-77
2023/06/03 03:13:44;;;;;;;6.68;4.68;;;;;;;;;;5035585;28;20510;-77
2023/06/03 03:16:09;;;;;;;6.38;4.32;;;;;;;;;;5035835;28;20120;-77
2023/06/03 03:18:36;;;;;;;8.10;4.55;;;;;;;;;;5052386;28;20032;-76
2023/06/03 03:21:02;;;;;;;10.02;5.05;;;;;;;;;;5035755;28;20029;-76
2023/06/03 03:23:28;;;;;;;7.22;4.68;;;;;;;;;;5035139;28;20039;-76
2023/06/03 03:25:56;;;;;;;7.60;4.30;;;;;;;;;;5052038;28;20059;-75
2023/06/03 03:28:21;;;;;;;6.20;4.72;;;;;;;;;;5051335;28;20024;-75
2023/06/03 03:30:49;;;;;;;7.68;5.10;;;;;;;;;;5034232;28;20434;-75
2023/06/03 03:33:18;;;;;;;6.93;5.25;;;;;;;;;;5050403;28;20090;-75
2023/06/03 03:35:43;;;;;;;7.20;5.43;;;;;;;;;;5051745;28;20033;-75
2023/06/03 03:38:09;;;;;;;5.80;5.13;;;;;;;;;;5050908;28;20044;-76
2023/06/03 03:40:36;;;;;;;7.05;5.35;;;;;;;;;;5051866;28;20046;-76
2023/06/03 03:43:05;;;;;;;7.65;5.55;;;;;;;;;;5035671;28;20037;-76
2023/06/03 03:45:35;;;;;;;7.65;5.47;;;;;;;;;;5051407;28;20116;-76
2023/06/03 03:48:05;;;;;;;6.90;5.05;;;;;;;;;;5032280;28;20502;-75
2023/06/03 03:50:40;;;;;;;5.40;4.53;;;;;;;;;;5044485;28;20392;-76
2023/06/03 03:53:06;;;;;;;6.72;4.90;;;;;;;;;;5050919;28;20407;-76
2023/06/03 03:55:32;;;;;;;6.80;4.95;;;;;;;;;;5034856;28;20032;-76
2023/06/03 03:58:02;;;;;;;7.15;5.32;;;;;;;;;;5052132;28;20035;-75
2023/06/03 04:00:27;;;;;;;5.88;4.85;;;;;;;;;;5034545;28;20024;-76
2023/06/03 04:02:53;;;;;;;7.18;5.00;;;;;;;;;;5031545;28;20484;-76
2023/06/03 04:05:22;;;;;;;5.82;4.72;;;;;;;;;;5034634;28;20025;-76
2023/06/03 04:07:48;;;;;;;5.82;4.50;;;;;;;;;;5051787;28;20373;-76
2023/06/03 04:10:14;;;;;;;6.45;3.95;;;;;;;;;;5034621;28;20039;-76
2023/06/03 04:12:39;;;;;;;4.78;3.75;;;;;;;;;;5052545;28;20040;-76
2023/06/03 04:15:08;;;;;;;6.13;3.50;;;;;;;;;;5052127;28;20032;-76
2023/06/03 04:17:37;;;;;;;4.32;3.15;;;;;;;;;;5018010;28;20076;-75
2023/06/03 04:20:16;;;;;;;4.50;3.40;;;;;;;;;;5051946;28;20036;-75
2023/06/03 04:22:42;;;;;;;4.95;3.25;;;;;;;;;;5034857;28;20029;-77
2023/06/03 04:25:08;;;;;;;3.95;2.60;;;;;;;;;;5051362;28;20024;-78
2023/06/03 04:27:41;;;;;;;3.70;1.85;;;;;;;;;;5052470;28;20064;-79
2023/06/03 04:30:10;;;;;;;4.63;2.00;;;;;;;;;;5050077;28;20450;-77
2023/06/03 04:32:36;;;;;;;3.10;1.95;;;;;;;;;;5046110;28;20568;-76
2023/06/03 04:35:02;;;;;;;4.78;1.83;;;;;;;;;;5066099;28;20029;-76
2023/06/03 04:37:28;;;;;;;2.70;1.60;;;;;;;;;;5034056;28;20454;-77
2023/06/03 04:39:54;;;;;;;2.75;1.10;;;;;;;;;;5051125;28;20028;-76
2023/06/03 04:42:21;;;;;;;2.80;1.00;;;;;;;;;;5030790;28;20022;-77
2023/06/03 04:44:49;;;;;;;1.77;0.93;;;;;;;;;;5035233;28;20029;-77
2023/06/03 04:47:17;;;;;;;3.60;1.10;;;;;;;;;;5050673;28;20033;-77
2023/06/03 04:49:47;;;;;;;1.05;0.57;;;;;;;;;;5033789;28;20407;-76
2023/06/03 04:52:12;;;;;;;1.55;0.80;;;;;;;;;;5031851;28;20026;-76
2023/06/03 04:54:42;;;;;;;0.93;0.60;;;;;;;;;;5067280;28;20443;-78
2023/06/03 04:57:10;;;;;;;1.85;0.70;;;;;;;;;;5050449;28;20033;-77
2023/06/03 04:59:36;;;;;;;2.50;0.70;;;;;;;;;;5051109;28;20381;-78
2023/06/03 05:02:03;;;;;;;1.48;0.70;;;;;;;;;;5048958;28;20060;-78
2023/06/03 05:04:29;;;;;;;1.30;0.80;;;;;;;;;;5027039;28;20029;-77
2023/06/03 05:06:57;;;;;;;0.73;0.60;;;;;;;;;;5032879;28;20063;-78
2023/06/03 05:09:23;;;;;;;1.45;0.65;;;;;;;;;;5050667;28;20071;-77
2023/06/03 05:11:52;;;;;;;0.88;0.60;;;;;;;;;;5049901;28;20029;-78
2023/06/03 05:14:18;;;;;;;1.75;0.60;;;;;;;;;;5066930;28;20028;-77
2023/06/03 05:16:44;;;;;;;0.93;0.50;;;;;;;;;;5032408;28;20054;-75
2023/06/03 05:19:10;;;;;;;2.15;0.80;;;;;;;;;;5030477;28;20495;-75
2023/06/03 05:21:36;;;;;;;2.10;0.70;;;;;;;;;;5033034;28;20044;-76
2023/06/03 05:24:03;;;;;;;1.02;0.50;;;;;;;;;;5051033;28;20041;-78
2023/06/03 05:26:28;;;;;;;1.25;0.60;;;;;;;;;;5048990;28;20032;-78
2023/06/03 05:28:54;;;;;;;3.83;0.60;;;;;;;;;;5050030;28;20025;-78
2023/06/03 05:31:21;;;;;;;1.00;0.52;;;;;;;;;;5048434;28;20153;-77
2023/06/03 05:33:46;;;;;;;1.92;0.80;;;;;;;;;;5051170;28;20507;-78
2023/06/03 05:36:16;;;;;;;0.88;0.40;;;;;;;;;;5050100;28;20029;-77
2023/06/03 05:38:42;;;;;;;1.95;0.80;;;;;;;;;;5049643;28;20408;-78
2023/06/03 05:41:10;;;;;;;2.65;0.60;;;;;;;;;;5048981;28;20022;-78
2023/06/03 05:43:36;;;;;;;1.58;0.70;;;;;;;;;;5049542;28;20033;-78
2023/06/03 05:46:02;;;;;;;2.30;0.75;;;;;;;;;;5050593;28;20036;-78
2023/06/03 05:48:53;;;;;;;1.42;0.60;;;;;;;;;;5031847;28;20127;-78
2023/06/03 05:51:21;;;;;;;1.83;0.80;;;;;;;;;;5033321;28;20476;-78
2023/06/03 05:53:47;;;;;;;0.80;0.68;;;;;;;;;;5030584;28;20388;-77
2023/06/03 05:56:17;;;;;;;0.47;0.47;;;;;;;;;;5038019;28;20459;-78
2023/06/03 05:58:43;;;;;;;0.73;0.55;;;;;;;;;;5050880;28;20086;-77
2023/06/03 06:01:10;;;;;;;1.75;0.60;;;;;;;;;;5049470;28;20029;-76
2023/06/03 06:03:35;;;;;;;2.28;0.60;;;;;;;;;;5049900;28;20033;-76
2023/06/03 06:06:01;;;;;;;0.55;0.50;;;;;;;;;;5029612;28;20033;-77
2023/06/03 06:08:27;;;;;;;1.45;0.60;;;;;;;;;;5029939;28;20084;-77
2023/06/03 06:10:53;;;;;;;0.75;0.65;;;;;;;;;;5049450;28;20041;-78
2023/06/03 06:13:19;;;;;;;1.67;0.57;;;;;;;;;;5016716;28;20403;-78
2023/06/03 06:15:55;;;;;;;1.00;0.50;;;;;;;;;;5058379;28;20088;-77
2023/06/03 06:18:24;;;;;;;1.40;0.80;;;;;;;;;;5061394;28;20045;-78
2023/06/03 06:20:49;;;;;;;3.95;0.65;;;;;;;;;;5049071;28;20025;-77
2023/06/03 06:23:15;;;;;;;1.63;0.70;;;;;;;;;;5050899;28;20095;-76
2023/06/03 06:25:46;;;;;;;0.52;0.52;;;;;;;;;;5032690;28;20025;-78
2023/06/03 06:28:11;;;;;;;1.83;0.60;;;;;;;;;;5032341;28;20496;-76
2023/06/03 06:30:37;;;;;;;1.02;0.70;;;;;;;;;;5050500;28;20055;-78
2023/06/03 06:33:06;;;;;;;1.75;0.75;;;;;;;;;;5032709;28;20040;-77
2023/06/03 06:35:37;;;;;;;1.20;0.65;;;;;;;;;;5048753;28;20674;-77
2023/06/03 06:38:03;;;;;;;1.27;0.70;;;;;;;;;;5061204;28;20123;-77
2023/06/03 06:40:30;;;;;;;0.80;0.60;;;;;;;;;;5050348;28;20021;-77
2023/06/03 06:42:56;;;;;;;1.05;0.70;;;;;;;;;;5032385;28;20098;-78
2023/06/03 06:45:40;;;;;;;1.02;0.50;;;;;;;;;;5035855;28;20033;-77
2023/06/03 06:48:08;;;;;;;0.60;0.50;;;;;;;;;;5048545;28;20037;-77
2023/06/03 06:50:59;;;;;;;0.88;0.55;;;;;;;;;;5048922;28;20142;-77
2023/06/03 06:53:35;;;;;;;0.98;0.60;;;;;;;;;;5034304;28;20041;-77
2023/06/03 06:56:07;;;;;;;1.13;0.68;;;;;;;;;;5030037;28;20059;-77
2023/06/03 06:58:41;;;;;;;1.10;0.60;;;;;;;;;;5032872;28;20040;-78
2023/06/03 07:01:06;;;;;;;1.02;0.60;;;;;;;;;;5032205;28;20120;-78
2023/06/03 07:03:34;;;;;;;1.30;0.82;;;;;;;;;;5030720;28;20032;-78
2023/06/03 07:06:00;;;;;;;1.70;0.80;;;;;;;;;;5049949;28;20396;-77
2023/06/03 07:08:28;;;;;;;1.25;0.60;;;;;;;;;;5048255;28;20071;-76
2023/06/03 07:10:58;;;;;;;1.15;0.52;;;;;;;;;;5031204;28;20033;-75
2023/06/03 07:13:24;;;;;;;2.10;1.05;;;;;;;;;;5050437;28;20128;-76
2023/06/03 07:15:50;;;;;;;2.20;0.90;;;;;;;;;;5032043;28;20474;-77
2023/06/03 07:18:15;;;;;;;2.40;0.80;;;;;;;;;;5031534;28;20403;-79
2023/06/03 07:20:42;;;;;;;1.10;0.60;;;;;;;;;;5048487;28;20078;-76
2023/06/03 07:23:26;;;;;;;1.52;0.70;;;;;;;;;;5031880;28;20475;-79
2023/06/03 07:25:53;;;;;;;0.77;0.60;;;;;;;;;;5035163;28;20037;-77
2023/06/03 07:28:20;;;;;;;2.17;0.80;;;;;;;;;;5052540;28;20541;-78
2023/06/03 07:30:47;;;;;;;1.85;1.00;;;;;;;;;;5033102;28;20029;-78
2023/06/03 07:33:20;;;;;;;1.63;0.75;;;;;;;;;;5034712;28;20021;-79
2023/06/03 07:35:45;;;;;;;1.02;0.70;;;;;;;;;;5051861;28;20045;-78
2023/06/03 07:38:11;;;;;;;2.03;0.70;;;;;;;;;;5034915;28;20035;-77
2023/06/03 07:40:42;;;;;;;0.95;0.50;;;;;;;;;;5035362;28;20029;-78
2023/06/03 07:43:09;;;;;;;1.38;0.70;;;;;;;;;;5018697;28;20070;-78
2023/06/03 07:45:34;;;;;;;0.98;0.80;;;;;;;;;;5051784;28;20029;-77
2023/06/03 07:48:00;;;;;;;2.67;0.90;;;;;;;;;;5052443;28;20033;-77
2023/06/03 07:50:26;;;;;;;1.05;0.55;;;;;;;;;;5051612;28;20123;-77
2023/06/03 07:52:54;;;;;;;0.85;0.50;;;;;;;;;;5031674;28;20095;-77
2023/06/03 07:55:19;;;;;;;0.93;0.55;;;;;;;;;;5031905;28;20025;-78
2023/06/03 07:57:46;;;;;;;0.82;0.60;;;;;;;;;;5051140;28;20040;-77
2023/06/03 08:00:13;;;;;;;1.85;0.77;;;;;;;;;;5051545;28;20025;-76
2023/06/03 08:02:40;;;;;;;1.15;0.60;;;;;;;;;;5050849;28;20055;-76
2023/06/03 08:05:06;;;;;;;0.90;0.70;;;;;;;;;;5051384;28;20028;-77
2023/06/03 08:07:32;;;;;;;1.25;0.85;;;;;;;;;;5052188;28;20090;-78
2023/06/03 08:09:58;;;;;;;1.52;0.80;;;;;;;;;;5052605;28;20057;-75
2023/06/03 08:12:25;;;;;;;0.40;0.40;;;;;;;;;;5050950;28;20036;-77
2023/06/03 08:14:50;;;;;;;0.63;0.32;;;;;;;;;;5051582;28;20107;-78
2023/06/03 08:17:16;;;;;;;1.90;0.70;;;;;;;;;;5050601;28;20423;-77
2023/06/03 08:19:41;;;;;;;;;;;;;;;;;;5051963;28;20037;-76
2023/06/03 08:22:22;;;;;;;4.57;2.00;;;;;;;;;;5052483;28;19913;-76
2023/06/03 08:24:48;;;;;;;3.65;2.40;;;;;;;;;;5052468;28;20033;-76
2023/06/03 08:27:13;;;;;;;3.38;2.42;;;;;;;;;;5052400;28;20054;-78
2023/06/03 08:29:39;;;;;;;2.90;2.00;;;;;;;;;;5051588;28;20404;-76
2023/06/03 08:32:04;;;;;;;3.95;2.10;;;;;;;;;;5050212;28;20618;-79
2023/06/03 08:34:29;;;;;;;2.58;1.60;;;;;;;;;;5052276;28;20040;-78
2023/06/03 08:36:55;;;;;;;;;;;;;;;;;;5051332;28;20025;-78
2023/06/03 08:39:20;;;;;;;2.42;1.20;;;;;;;;;;5051783;28;19920;-77
2023/06/03 08:41:46;;;;;;;1.63;0.90;;;;;;;;;;5051830;28;20508;-77
2023/06/03 08:44:11;;;;;;;;;;;;;;;;;;5050337;28;20037;-77
2023/06/03 08:46:46;;;;;;;2.80;1.60;;;;;;;;;;5051820;28;20297;-76
2023/06/03 08:49:12;;;;;;;2.78;1.60;;;;;;;;;;5050540;28;20425;-78
2023/06/03 08:51:37;;;;;;;2.88;1.25;;;;;;;;;;5050258;28;20039;-75
2023/06/03 08:54:06;;;;;;;4.47;2.60;;;;;;;;;;5051577;28;20036;-77
2023/06/03 08:56:32;;;;;;;4.95;3.63;;;;;;;;;;5051183;28;20040;-75
2023/06/03 08:59:00;;;;;;;5.57;4.35;;;;;;;;;;5033011;28;20032;-78
2023/06/03 09:01:32;;;;;;;5.40;4.00;;;;;;;;;;5051751;28;20108;-77
2023/06/03 09:03:58;;;;;;;5.55;3.70;;;;;;;;;;5033045;28;20029;-77
2023/06/03 09:06:23;;;;;;;4.93;4.00;;;;;;;;;;5051561;28;20373;-80
2023/06/03 09:08:50;;;;;;;4.97;3.22;;;;;;;;;;5049878;28;20055;-77
2023/06/03 09:11:16;;;;;;;4.63;3.00;;;;;;;;;;5051454;28;20514;-79
2023/06/03 09:13:41;;;;;;;;;;;;;;;;;;5052312;28;20060;-79
2023/06/03 09:16:07;;;;;;;3.38;2.10;;;;;;;;;;5051254;28;19924;-76
2023/06/03 09:18:32;;;;;;;;;;;;;;;;;;5051302;28;20091;-79
2023/06/03 09:20:57;;;;;;;3.40;1.80;;;;;;;;;;5048902;28;19909;-76
2023/06/03 09:23:23;;;;;;;;;;;;;;;;;;5050530;28;20407;-77
2023/06/03 09:25:48;;;;;;;2.60;1.75;;;;;;;;;;5050894;28;20426;-77
2023/06/03 09:28:14;;;;;;;;;;;;;;;;;;5051275;28;20044;-78
2023/06/03 09:30:40;;;;;;;3.03;1.63;;;;;;;;;;5050142;28;19912;-76
2023/06/03 09:33:05;;;;;;;4.45;1.80;;;;;;;;;;5049278;28;20036;-78
2023/06/03 09:35:31;;;;;;;;;;;;;;;;;;5050055;28;20441;-77
2023/06/03 09:38:00;;;;;;;2.95;1.60;;;;;;;;;;5050541;28;19912;-78
2023/06/03 09:40:29;;;;;;;1.92;1.10;;;;;;;;;;5050803;28;20036;-77
2023/06/03 09:42:55;;;;;;;2.67;0.80;;;;;;;;;;5049358;28;20032;-77
2023/06/03 09:45:20;;;;;;;;;;;;;;;;;;5051398;28;20037;-77
2023/06/03 09:47:45;;;;;;;2.53;1.30;;;;;;;;;;5049404;28;19991;-76
2023/06/03 09:50:11;;;;;;;;;;;;;;;;;;5050265;28;20044;-78
2023/06/03 09:52:37;;;;;;;2.03;1.05;;;;;;;;;;5049442;28;20276;-78
2023/06/03 09:55:02;;;;;;;;;;;;;;;;;;5051092;28;20047;-76
2023/06/03 09:57:28;;;;;;;2.15;1.05;;;;;;;;;;5051001;28;19918;-77
2023/06/03 10:00:02;;;;;;;2.90;1.20;;;;;;;;;;5049724;28;20033;-77
2023/06/03 10:02:28;;;;;;;1.83;1.10;;;;;;;;;;5049624;28;20064;-76
2023/06/03 10:04:53;;;;;;;;;;;;;;;;;;5051499;28;20064;-76
2023/06/03 10:07:20;;;;;;;2.75;0.90;;;;;;;;;;5050715;28;19928;-76
2023/06/03 10:09:46;;;;;;;3.38;1.15;;;;;;;;;;5050992;28;20043;-77
2023/06/03 10:12:16;;;;;;;1.58;0.88;;;;;;;;;;5048755;28;20029;-77
2023/06/03 10:14:45;;;;;;;3.00;1.10;;;;;;;;;;5032561;28;20021;-78
2023/06/03 10:17:11;;;;;;;1.55;0.90;;;;;;;;;;5048872;28;20071;-78
2023/06/03 10:19:36;;;;;;;;;;;;;;;;;;5049463;28;20561;-78
2023/06/03 10:22:02;;;;;;;1.65;1.00;;;;;;;;;;5049978;28;19912;-78
2023/06/03 10:24:29;;;;;;;3.53;1.20;;;;;;;;;;5049062;28;20051;-77
2023/06/03 10:26:54;;;;;;;1.90;1.10;;;;;;;;;;5048961;28;20037;-76
2023/06/03 10:29:20;;;;;;;;;;;;;;;;;;5050222;28;20094;-78
2023/06/03 10:31:45;;;;;;;2.40;1.30;;;;;;;;;;5049206;28;19916;-77
2023/06/03 10:34:11;;;;;;;;;;;;;;;;;;5049450;28;20031;-76
2023/06/03 10:36:36;;;;;;;1.98;1.02;;;;;;;;;;5048519;28;19912;-76
2023/06/03 10:39:02;;;;;;;2.55;1.30;;;;;;;;;;5032352;28;20025;-77
2023/06/03 10:41:30;;;;;;;;;;;;;;;;;;5032507;28;20025;-77
2023/06/03 10:43:55;;;;;;;2.90;1.30;;;;;;;;;;5049816;28;19919;-78
2023/06/03 10:46:20;;;;;;;;;;;;;;;;;;5050457;28;20053;-78
2023/06/03 10:48:46;;;;;;;1.98;1.10;;;;;;;;;;5032870;28;19962;-76
2023/06/03 10:51:11;;;;;;;;;;;;;;;;;;5050505;28;20068;-76
2023/06/03 10:53:37;;;;;;;3.13;1.60;;;;;;;;;;5050285;28;19909;-76
2023/06/03 10:56:02;;;;;;;;;;;;;;;;;;5050277;28;20510;-76
2023/06/03 10:58:30;;;;;;;1.98;1.38;;;;;;;;;;5049933;28;19962;-79
2023/06/03 11:01:00;;;;;;;2.35;1.10;;;;;;;;;;5053660;28;20032;-77
2023/06/03 11:03:26;;;;;;;2.15;1.33;;;;;;;;;;5053855;28;20068;-77
2023/06/03 11:05:51;;;;;;;1.40;0.90;;;;;;;;;;5051967;28;20091;-77
2023/06/03 11:08:17;;;;;;;;;;;;;;;;;;5054427;28;20036;-76
2023/06/03 11:10:42;;;;;;;2.08;0.90;;;;;;;;;;5051971;28;19948;-78
2023/06/03 11:13:08;;;;;;;;;;;;;;;;;;5053395;28;20033;-78
2023/06/03 11:15:52;;;;;;;1.80;0.70;;;;;;;;;;5052109;28;19912;-78
2023/06/03 11:18:18;;;;;;;1.15;0.70;;;;;;;;;;5047755;28;20052;-77
2023/06/03 11:20:43;;;;;;;;;;;;;;;;;;5052702;28;20033;-75
2023/06/03 11:23:08;;;;;;;1.48;0.80;;;;;;;;;;5053311;28;19916;-78
2023/06/03 11:25:34;;;;;;;;;;;;;;;;;;5052341;28;20167;-78
2023/06/03 11:28:18;;;;;;;2.15;0.80;;;;;;;;;;5051849;28;19912;-77
2023/06/03 11:30:54;;;;;;;1.55;0.88;;;;;;;;;;5052690;28;20039;-78
2023/06/03 11:33:20;;;;;;;;;;;;;;;;;;5051358;28;20060;-78
2023/06/03 11:35:45;;;;;;;1.98;1.00;;;;;;;;;;5053237;28;19959;-78
2023/06/03 11:38:11;;;;;;;2.58;0.95;;;;;;;;;;5051795;28;20083;-79
2023/06/03 11:40:44;;;;;;;2.28;1.13;;;;;;;;;;5051850;28;20524;-78
2023/06/03 11:43:09;;;;;;;2.38;1.20;;;;;;;;;;5052894;28;20040;-75
2023/06/03 11:45:37;;;;;;;;;;;;;;;;;;5052356;28;20045;-78
2023/06/03 11:48:10;;;;;;;1.60;1.10;;;;;;;;;;5051361;28;19940;-78
2023/06/03 11:50:53;;;;;;;2.00;0.98;;;;;;;;;;5050120;28;20048;-78
2023/06/03 11:53:30;;;;;;;1.90;0.90;;;;;;;;;;5051797;28;20040;-78
2023/06/03 11:56:09;;;;;;;1.45;1.00;;;;;;;;;;5052862;28;20040;-77
2023/06/03 11:58:35;;;;;;;1.55;1.05;;;;;;;;;;5051441;28;20064;-78
2023/06/03 12:01:00;;;;;;;;;;;;;;;;;;5052215;28;20365;-77
2023/06/03 12:03:25;;;;;;;1.15;0.93;;;;;;;;;;5051422;28;19912;-77
2023/06/03 12:05:51;;;;;;;;;;;;;;;;;;5051699;28;20017;-76
2023/06/03 12:08:16;;;;;;;1.88;0.95;;;;;;;;;;5052738;28;20347;-76
2023/06/03 12:10:42;;;;;;;2.13;1.00;;;;;;;;;;5050644;28;20021;-78
2023/06/03 12:13:07;;;;;;;;;;;;;;;;;;5052241;28;20123;-76
2023/06/03 12:15:32;;;;;;;1.73;1.00;;;;;;;;;;5052376;28;19909;-75
2023/06/03 12:17:58;;;;;;;;;;;;;;;;;;5032407;28;20152;-78
2023/06/03 12:20:23;;;;;;;2.78;1.27;;;;;;;;;;5051660;28;19912;-79
2023/06/03 12:22:49;;;;;;;;;;;;;;;;;;5052678;28;20029;-78
2023/06/03 12:25:20;;;;;;;2.25;1.10;;;;;;;;;;5052293;28;19956;-78
2023/06/03 12:27:47;;;;;;;2.90;1.08;;;;;;;;;;5051090;28;20160;-78
2023/06/03 12:30:17;;;;;;;1.75;1.10;;;;;;;;;;5051609;28;20164;-77
2023/06/03 12:33:07;;;;;;;1.73;1.13;;;;;;;;;;5049771;28;20555;-77
2023/06/03 12:35:33;;;;;;;;;;;;;;;;;;5052565;28;20056;-77
2023/06/03 12:37:58;;;;;;;;;;;;;;;;;;5052427;28;19921;-76
2023/06/03 12:40:23;;;;;;;;;;;;;;;;;;5051237;28;19947;-75
2023/06/03 12:42:49;;;;;;;;;;;;;;;;;;5052231;28;19951;-76
2023/06/03 12:45:14;;;;;;;;;;;;;;;;;;5052218;28;19916;-77
2023/06/03 12:47:40;;;;;;;;;;;;;;;;;;5052286;28;19909;-78
2023/06/03 12:50:05;;;;;;;;;;;;;;;;;;5052582;28;19913;-76
2023/06/03 12:52:38;;;;;;;;;;;;;;;;;;5033982;28;19912;-76
2023/06/03 12:55:09;;;;;;;;;;;;;;;;;;5052403;28;19920;-76
2023/06/03 12:57:35;;;;;;;;;;;;;;;;;;5051748;28;19973;-77
2023/06/03 13:00:00;;;;;;;;;;;;;;;;;;5050517;28;20000;-77
2023/06/03 13:02:25;;;;;;;;;;;;;;;;;;5051455;28;19928;-76
2023/06/03 13:04:51;;;;;;;;;;;;;;;;;;5050605;28;19988;-77
2023/06/03 13:07:17;;;;;;;;;;;;;;;;;;5050276;28;19912;-78
2023/06/03 13:09:42;;;;;;;;;;;;;;;;;;5051918;28;19956;-78
2023/06/03 13:12:08;;;;;;;;;;;;;;;;;;5052086;28;20240;-78
2023/06/03 13:14:33;;;;;;;;;;;;;;;;;;5052388;28;19909;-79
2023/06/03 13:16:59;;;;;;;;;;;;;;;;;;5050259;28;19931;-78
2023/06/03 13:19:24;;;;;;;;;;;;;;;;;;5051764;28;19952;-77
2023/06/03 13:21:49;;;;;;;;;;;;;;;;;;5050723;28;19939;-78
2023/06/03 13:24:15;;;;;;;;;;;;;;;;;;5051887;28;20385;-78
2023/06/03 13:26:40;;;;;;;;;;;;;;;;;;5051490;28;19912;-78
2023/06/03 13:29:05;;;;;;;;;;;;;;;;;;5031379;28;19909;-78
2023/06/03 13:31:31;;;;;;;;;;;;;;;;;;5047373;28;19920;-77
2023/06/03 13:33:56;;;;;;;;;;;;;;;;;;5051867;28;19909;-77
2023/06/03 13:36:21;;;;;;;;;;;;;;;;;;5049733;28;19959;-77
2023/06/03 13:38:48;;;;;;;;;;;;;;;;;;5051730;28;19960;-78
2023/06/03 13:41:13;;;;;;;;;;;;;;;;;;5051138;28;19917;-78
2023/06/03 13:43:38;;;;;;;;;;;;;;;;;;5033529;28;19999;-78
2023/06/03 13:46:04;;;;;;;;;;;;;;;;;;5051062;28;19970;-78
2023/06/03 13:48:29;;;;;;;;;;;;;;;;;;5051466;28;20039;-78
2023/06/03 13:50:55;;;;;;;;;;;;;;;;;;5051063;28;20308;-78
2023/06/03 13:53:20;;;;;;;;;;;;;;;;;;5051160;28;19916;-77
2023/06/03 13:55:46;;;;;;;;;;;;;;;;;;5050750;28;19913;-77
2023/06/03 13:58:12;;;;;;;;;;;;;;;;;;5050906;28;19912;-77
2023/06/03 14:00:37;;;;;;;;;;;;;;;;;;5050600;28;19912;-77
2023/06/03 14:03:04;;;;;;;;;;;;;;;;;;5049612;28;19915;-77
2023/06/03 14:05:29;;;;;;;;;;;;;;;;;;5049612;28;20268;-78
2023/06/03 14:07:55;;;;;;;;;;;;;;;;;;5050873;28;19954;-77
2023/06/03 14:10:20;;;;;;;;;;;;;;;;;;5051205;28;19962;-77
2023/06/03 14:12:46;;;;;;;;;;;;;;;;;;5050970;28;19915;-77
2023/06/03 14:15:11;;;;;;;;;;;;;;;;;;5050125;28;19913;-77
2023/06/03 14:17:36;;;;;;;;;;;;;;;;;;5050443;28;19924;-77
2023/06/03 14:20:02;;;;;;;;;;;;;;;;;;5049540;28;19913;-77
2023/06/03 14:22:29;;;;;;;;;;;;;;;;;;5050981;28;19909;-77
2023/06/03 14:24:55;;;;;;;;;;;;;;;;;;5049485;28;19917;-77
2023/06/03 14:27:20;;;;;;;;;;;;;;;;;;5049608;28;19908;-77
2023/06/03 14:29:45;;;;;;;;;;;;;;;;;;5050567;28;19913;-78
2023/06/03 14:32:11;;;;;;;;;;;;;;;;;;5049695;28;19908;-77
2023/06/03 14:34:36;;;;;;;;;;;;;;;;;;5053459;28;19913;-77
2023/06/03 14:37:01;;;;;;;;;;;;;;;;;;5053476;28;19920;-78
2023/06/03 14:39:27;;;;;;;;;;;;;;;;;;5054296;28;19919;-77
2023/06/03 14:41:52;;;;;;;;;;;;;;;;;;5054906;28;20295;-78
2023/06/03 14:44:17;;;;;;;;;;;;;;;;;;5054973;28;19913;-77
2023/06/03 14:46:43;;;;;;;;;;;;;;;;;;5051365;28;19909;-77
2023/06/03 14:49:08;;;;;;;;;;;;;;;;;;5053342;28;19913;-77
2023/06/03 14:51:33;;;;;;;;;;;;;;;;;;5055003;28;19908;-77
2023/06/03 14:53:59;;;;;;;;;;;;;;;;;;5054445;28;19920;-77
2023/06/03 14:56:25;;;;;;;;;;;;;;;;;;5069521;28;19913;-77
2023/06/03 14:58:50;;;;;;;;;;;;;;;;;;5054456;28;20497;-77
2023/06/03 15:01:15;;;;;;;;;;;;;;;;;;5036728;28;19908;-77
2023/06/03 15:03:41;;;;;;;;;;;;;;;;;;5053195;28;19912;-77
2023/06/03 15:06:06;;;;;;;;;;;;;;;;;;5069667;28;20325;-78
2023/06/03 15:08:31;;;;;;;;;;;;;;;;;;5069271;28;19913;-77
2023/06/03 15:10:57;;;;;;;;;;;;;;;;;;5054483;28;19909;-77